Time;durP1;ratioP1;P1;durP2;ratioP2;P2;SDS_P1;SDS_P2;PMS_P1;PMS_P2;Temp;Humidity;BMP_temperature;BMP_pressure;BME280_temperature;BME280_humidity;BME280_pressure;Samples;Min_cycle;Max_cycle;Signal;HPM_P1;HPM_P2
2023/02/22 00:02:09;;;;;;;;;;;;;;;7.95;90.23;98872.13;5051316;28;19967;-84
2023/02/22 00:04:35;;;;;;;;;;;;;;;7.95;90.45;98867.59;5027668;28;19983;-83
2023/02/22 00:07:00;;;;;;;;;;;;;;;7.96;90.60;98873.72;5050132;28;20538;-83
2023/02/22 00:09:26;;;;;;;;;;;;;;;7.96;90.11;98860.44;5069869;28;19927;-83
2023/02/22 00:11:51;;;;;;;;;;;;;;;7.88;90.19;98858.13;5045970;28;19983;-83
2023/02/22 00:14:19;;;;;;;;;;;;;;;7.87;90.62;98859.16;5047303;28;19917;-83
2023/02/22 00:16:44;;;;;;;;;;;;;;;7.86;90.72;98854.91;5043441;28;19921;-84
2023/02/22 00:19:10;;;;;;;;;;;;;;;7.84;90.26;98849.81;5064291;28;19928;-83
2023/02/22 00:21:36;;;;;;;;;;;;;;;7.84;91.50;98849.81;5045312;28;19916;-83
2023/02/22 00:24:15;;;;;;;;;;;;;;;7.84;90.23;98849.03;5047718;28;19960;-83
2023/02/22 00:26:41;;;;;;;;;;;;;;;7.82;91.07;98846.56;5044655;28;19946;-84
2023/02/22 00:29:07;;;;;;;;;;;;;;;7.75;91.01;98840.59;5045421;28;19920;-84
2023/02/22 00:31:36;;;;;;;;;;;;;;;7.76;91.07;98847.50;5062062;28;19932;-83
2023/02/22 00:34:01;;;;;;;;;;;;;;;7.67;90.30;98843.56;5045225;28;20299;-83
2023/02/22 00:36:26;;;;;;;;;;;;;;;7.68;90.82;98845.19;5050921;28;19920;-83
2023/02/22 00:38:51;;;;;;;;;;;;;;;7.69;90.89;98841.47;5032474;28;20495;-82
2023/02/22 00:41:17;;;;;;;;;;;;;;;7.72;91.25;98846.34;5046918;28;19974;-82
2023/02/22 00:43:42;;;;;;;;;;;;;;;7.68;90.96;98839.06;5060501;28;20379;-81
2023/02/22 00:46:07;;;;;;;;;;;;;;;7.64;90.38;98837.91;5044871;28;19929;-82
2023/02/22 00:48:32;;;;;;;;;;;;;;;7.57;90.43;98838.00;5047316;28;19944;-83
2023/02/22 00:50:58;;;;;;;;;;;;;;;7.60;90.43;98836.75;5064631;28;20303;-82
2023/02/22 00:53:24;;;;;;;;;;;;;;;7.51;91.04;98842.38;5062091;28;19948;-83
2023/02/22 00:55:49;;;;;;;;;;;;;;;7.51;90.69;98831.75;5061492;28;20008;-84
2023/02/22 00:58:15;;;;;;;;;;;;;;;7.57;91.21;98830.06;5041485;28;20054;-83
2023/02/22 01:00:41;;;;;;;;;;;;;;;7.53;91.32;98827.03;5047278;28;19917;-84
2023/02/22 01:03:09;;;;;;;;;;;;;;;7.49;90.90;98835.72;5049585;28;19921;-83
2023/02/22 01:05:35;;;;;;;;;;;;;;;7.49;91.42;98828.53;5053355;28;19943;-84
2023/02/22 01:08:01;;;;;;;;;;;;;;;7.50;90.76;98827.50;5053323;28;19917;-82
2023/02/22 01:10:28;;;;;;;;;;;;;;;7.55;90.56;98824.16;5047141;28;19921;-83
2023/02/22 01:12:53;;;;;;;;;;;;;;;7.53;90.97;98821.72;5032870;28;19936;-83
2023/02/22 01:15:20;;;;;;;;;;;;;;;7.56;91.48;98817.78;5051390;28;19921;-83
2023/02/22 01:17:45;;;;;;;;;;;;;;;7.58;91.09;98818.38;5051628;28;19917;-82
2023/02/22 01:20:13;;;;;;;;;;;;;;;7.55;91.08;98818.84;5052325;28;19916;-83
2023/02/22 01:22:40;;;;;;;;;;;;;;;7.55;91.26;98817.00;5049233;28;20372;-83
2023/02/22 01:25:06;;;;;;;;;;;;;;;7.54;90.81;98814.56;5046073;28;19964;-82
2023/02/22 01:27:31;;;;;;;;;;;;;;;7.57;91.77;98814.13;5044526;28;19925;-83
2023/02/22 01:30:00;;;;;;;;;;;;;;;7.59;91.55;98812.03;5041877;28;20121;-83
2023/02/22 01:32:25;;;;;;;;;;;;;;;7.60;91.41;98821.59;5043660;28;19938;-83
2023/02/22 01:34:53;;;;;;;;;;;;;;;7.54;91.16;98812.72;5047649;28;20003;-83
2023/02/22 01:37:19;;;;;;;;;;;;;;;7.62;91.23;98808.94;5045980;28;19979;-83
2023/02/22 01:39:44;;;;;;;;;;;;;;;7.57;91.82;98812.28;5055159;28;19920;-83
2023/02/22 01:42:10;;;;;;;;;;;;;;;7.59;91.81;98809.38;5052181;28;19917;-83
2023/02/22 01:44:36;;;;;;;;;;;;;;;7.57;90.91;98803.50;5044653;28;20233;-83
2023/02/22 01:47:03;;;;;;;;;;;;;;;7.65;90.77;98804.97;5060228;28;19921;-82
2023/02/22 01:49:31;;;;;;;;;;;;;;;7.67;90.97;98798.41;5042884;28;19920;-83
2023/02/22 01:51:59;;;;;;;;;;;;;;;7.66;91.20;98799.47;5049241;28;19952;-83
2023/02/22 01:54:27;;;;;;;;;;;;;;;7.72;90.15;98793.22;5050437;28;19932;-83
2023/02/22 01:56:59;;;;;;;;;;;;;;;7.70;90.47;98797.94;5068464;28;19999;-84
2023/02/22 01:59:26;;;;;;;;;;;;;;;7.73;90.92;98788.72;5047863;28;20008;-82
2023/02/22 02:01:51;;;;;;;;;;;;;;;7.58;91.40;98789.97;5051475;28;19921;-82
2023/02/22 02:04:19;;;;;;;;;;;;;;;7.67;90.75;98781.66;5062205;28;20280;-82
2023/02/22 02:06:46;;;;;;;;;;;;;;;7.77;90.95;98787.22;5050205;28;19917;-83
2023/02/22 02:09:11;;;;;;;;;;;;;;;7.75;90.27;98783.97;5042804;28;20290;-84
2023/02/22 02:11:39;;;;;;;;;;;;;;;7.76;90.25;98789.06;5046004;28;19920;-83
2023/02/22 02:14:04;;;;;;;;;;;;;;;7.80;90.16;98794.72;5051949;28;21809;-83
2023/02/22 02:16:40;;;;;;;;;;;;;;;7.81;90.15;98788.34;5053418;28;19956;-83
2023/02/22 02:19:09;;;;;;;;;;;;;;;7.75;90.35;98779.47;5048351;28;19927;-82
2023/02/22 02:21:42;;;;;;;;;;;;;;;7.76;91.04;98789.06;5054532;28;19917;-84
2023/02/22 02:24:19;;;;;;;;;;;;;;;7.74;90.39;98785.81;5054729;28;19920;-83
2023/02/22 02:26:54;;;;;;;;;;;;;;;7.74;90.94;98785.00;5067269;28;19921;-84
2023/02/22 02:29:31;;;;;;;;;;;;;;;7.74;91.16;98774.38;5052020;28;19924;-83
2023/02/22 02:32:15;;;;;;;;;;;;;;;7.72;91.00;98776.47;5053164;28;19921;-83
2023/02/22 02:34:56;;;;;;;;;;;;;;;7.54;91.07;98772.88;5067516;28;19928;-82
2023/02/22 02:37:40;;;;;;;;;;;;;;;7.34;91.93;98766.28;5050472;28;19947;-83
2023/02/22 02:40:16;;;;;;;;;;;;;;;7.50;91.86;98766.41;5064918;28;20303;-83
2023/02/22 02:42:45;;;;;;;;;;;;;;;7.30;91.81;98765.13;5069670;28;20330;-83
2023/02/22 02:45:14;;;;;;;;;;;;;;;7.24;92.70;98758.91;5049191;28;19927;-83
2023/02/22 02:47:44;;;;;;;;;;;;;;;7.49;91.76;98756.81;5049577;28;19924;-84
2023/02/22 02:50:18;;;;;;;;;;;;;;;7.57;91.93;98758.34;5044485;28;19924;-83
2023/02/22 02:52:45;;;;;;;;;;;;;;;7.74;91.12;98755.78;5052817;28;19925;-83
2023/02/22 02:55:12;;;;;;;;;;;;;;;7.77;90.52;98752.66;5046556;28;19917;-84
2023/02/22 02:57:37;;;;;;;;;;;;;;;7.78;90.22;98757.75;5046598;28;19935;-83
2023/02/22 03:00:21;;;;;;;;;;;;;;;7.75;90.89;98752.91;5049939;28;19917;-83
2023/02/22 03:02:46;;;;;;;;;;;;;;;7.75;90.56;98744.94;5064173;28;19925;-83
2023/02/22 03:05:20;;;;;;;;;;;;;;;7.72;90.92;98744.59;5049048;28;20773;-83
2023/02/22 03:07:45;;;;;;;;;;;;;;;7.69;90.86;98742.41;5050114;28;19924;-83
2023/02/22 03:10:12;;;;;;;;;;;;;;;7.71;90.62;98740.31;5063018;28;20577;-83
2023/02/22 03:12:51;;;;;;;;;;;;;;;7.60;91.52;98733.97;5053712;28;19925;-83
2023/02/22 03:15:21;;;;;;;;;;;;;;;7.72;91.27;98739.28;5055660;28;19970;-84
2023/02/22 03:18:01;;;;;;;;;;;;;;;7.71;90.76;98742.97;5072682;28;19971;-84
2023/02/22 03:20:32;;;;;;;;;;;;;;;7.71;91.38;98727.03;5048981;28;20368;-82
2023/02/22 03:23:03;;;;;;;;;;;;;;;7.66;90.65;98729.56;5053827;28;19924;-83
2023/02/22 03:25:34;;;;;;;;;;;;;;;7.63;90.71;98724.72;5049049;28;20011;-83
2023/02/22 03:28:02;;;;;;;;;;;;;;;7.66;91.39;98726.94;5057425;28;19917;-83
2023/02/22 03:30:35;;;;;;;;;;;;;;;7.69;91.23;98727.25;5048873;28;19921;-83
2023/02/22 03:33:08;;;;;;;;;;;;;;;7.73;90.33;98724.97;5056826;28;20011;-83
2023/02/22 03:35:36;;;;;;;;;;;;;;;7.62;90.90;98723.94;5048296;28;19999;-83
2023/02/22 03:38:02;;;;;;;;;;;;;;;7.55;91.79;98718.75;5062021;28;19948;-83
2023/02/22 03:40:33;;;;;;;;;;;;;;;7.55;91.30;98723.25;5049925;28;19924;-82
2023/02/22 03:43:17;;;;;;;;;;;;;;;7.58;91.68;98717.44;5057961;28;19932;-83
2023/02/22 03:45:43;;;;;;;;;;;;;;;7.57;91.42;98721.97;5052368;28;20023;-82
2023/02/22 03:48:13;;;;;;;;;;;;;;;7.49;91.66;98717.00;5054457;28;19917;-83
2023/02/22 03:50:38;;;;;;;;;;;;;;;7.47;92.57;98724.38;5051620;28;19917;-83
2023/02/22 03:53:03;;;;;;;;;;;;;;;7.57;91.19;98716.66;5049399;28;19935;-83
2023/02/22 03:55:30;;;;;;;;;;;;;;;7.53;91.81;98720.78;5070596;28;19924;-83
2023/02/22 03:57:59;;;;;;;;;;;;;;;7.40;92.39;98723.69;5050012;28;19917;-83
2023/02/22 04:00:26;;;;;;;;;;;;;;;7.35;92.13;98720.13;5050377;28;19921;-83
2023/02/22 04:02:51;;;;;;;;;;;;;;;7.34;92.79;98719.31;5050788;28;20428;-83
2023/02/22 04:05:17;;;;;;;;;;;;;;;7.32;92.79;98721.38;5042995;28;19917;-83
2023/02/22 04:07:42;;;;;;;;;;;;;;;7.49;92.15;98721.53;5057812;28;19929;-82
2023/02/22 04:10:08;;;;;;;;;;;;;;;7.47;91.41;98718.25;5048230;28;19920;-83
2023/02/22 04:12:34;;;;;;;;;;;;;;;7.46;92.03;98725.44;5048162;28;19931;-83
2023/02/22 04:15:00;;;;;;;;;;;;;;;7.38;92.60;98727.63;5061069;28;20451;-82
2023/02/22 04:17:25;;;;;;;;;;;;;;;7.47;92.21;98719.06;5050603;28;19997;-82
2023/02/22 04:19:50;;;;;;;;;;;;;;;7.41;92.63;98722.66;5064609;28;19920;-82
2023/02/22 04:22:16;;;;;;;;;;;;;;;7.49;92.24;98719.66;5044004;28;19928;-83
2023/02/22 04:24:41;;;;;;;;;;;;;;;7.45;91.84;98717.69;5055840;28;19943;-82
2023/02/22 04:27:06;;;;;;;;;;;;;;;7.48;91.28;98712.75;5053233;28;19921;-82
2023/02/22 04:29:32;;;;;;;;;;;;;;;7.43;91.78;98720.56;5065299;28;19924;-83
2023/02/22 04:31:57;;;;;;;;;;;;;;;7.56;91.28;98708.91;5048278;28;19947;-83
2023/02/22 04:34:22;;;;;;;;;;;;;;;7.55;91.31;98710.78;5067045;28;20026;-84
2023/02/22 04:36:47;;;;;;;;;;;;;;;7.57;91.44;98711.34;5051108;28;19960;-83
2023/02/22 04:39:13;;;;;;;;;;;;;;;7.59;91.21;98711.09;5049567;28;20014;-84
2023/02/22 04:41:38;;;;;;;;;;;;;;;7.57;91.33;98711.34;5052635;28;19920;-83
2023/02/22 04:44:03;;;;;;;;;;;;;;;7.49;91.23;98705.59;5043776;28;20396;-83
2023/02/22 04:46:30;;;;;;;;;;;;;;;7.42;92.22;98708.34;5045808;28;20381;-82
2023/02/22 04:48:56;;;;;;;;;;;;;;;7.44;91.72;98705.47;5038527;28;19967;-83
2023/02/22 04:51:21;;;;;;;;;;;;;;;7.43;92.25;98706.50;5041940;28;19925;-82
2023/02/22 04:53:47;;;;;;;;;;;;;;;7.52;91.64;98703.25;5046253;28;19971;-82
2023/02/22 04:56:12;;;;;;;;;;;;;;;7.50;91.67;98705.34;5045267;28;19925;-82
2023/02/22 04:58:37;;;;;;;;;;;;;;;7.51;92.34;98700.84;5045236;28;19927;-82
2023/02/22 05:01:03;;;;;;;;;;;;;;;7.44;92.32;98706.28;5025592;28;19964;-82
2023/02/22 05:03:28;;;;;;;;;;;;;;;7.41;91.82;98704.06;5046230;28;20635;-83
2023/02/22 05:05:53;;;;;;;;;;;;;;;7.35;93.35;98699.69;5047478;28;19982;-83
2023/02/22 05:08:19;;;;;;;;;;;;;;;7.44;93.18;98695.66;5045145;28;19932;-82
2023/02/22 05:10:44;;;;;;;;;;;;;;;7.42;92.00;98696.91;5041711;28;19925;-82
2023/02/22 05:13:09;;;;;;;;;;;;;;;7.44;92.09;98692.19;5047973;28;19974;-82
2023/02/22 05:15:35;;;;;;;;;;;;;;;7.40;92.31;98694.47;5070098;28;20023;-83
2023/02/22 05:18:00;;;;;;;;;;;;;;;7.44;92.51;98690.34;5053702;28;19944;-83
2023/02/22 05:20:30;;;;;;;;;;;;;;;7.46;92.06;98690.09;5047187;28;20019;-84
2023/02/22 05:22:56;;;;;;;;;;;;;;;7.49;92.49;98690.44;5050622;28;19920;-83
2023/02/22 05:25:22;;;;;;;;;;;;;;;7.47;92.22;98683.75;5048417;28;19924;-82
2023/02/22 05:27:58;;;;;;;;;;;;;;;7.42;92.25;98679.16;5050616;28;19925;-82
2023/02/22 05:30:25;;;;;;;;;;;;;;;7.49;92.32;98685.13;5043015;28;19924;-83
2023/02/22 05:32:50;;;;;;;;;;;;;;;7.40;92.48;98683.84;5043934;28;19921;-82
2023/02/22 05:35:16;;;;;;;;;;;;;;;7.49;92.21;98687.00;5029782;28;19947;-82
2023/02/22 05:37:42;;;;;;;;;;;;;;;7.41;92.29;98680.19;5047221;28;19925;-82
2023/02/22 05:40:07;;;;;;;;;;;;;;;7.54;91.93;98676.47;5043173;28;19929;-82
2023/02/22 05:42:32;;;;;;;;;;;;;;;7.56;91.63;98683.16;5043055;28;20015;-82
2023/02/22 05:44:59;;;;;;;;;;;;;;;7.49;91.88;98679.03;5050730;28;19921;-82
2023/02/22 05:47:24;;;;;;;;;;;;;;;7.59;92.33;98673.94;5050288;28;19924;-82
2023/02/22 05:49:49;;;;;;;;;;;;;;;7.36;92.00;98672.09;5047994;28;19969;-83
2023/02/22 05:52:15;;;;;;;;;;;;;;;7.54;92.10;98679.13;5032879;28;20008;-82
2023/02/22 05:54:40;;;;;;;;;;;;;;;7.58;92.09;98677.59;5052229;28;20380;-84
2023/02/22 05:57:06;;;;;;;;;;;;;;;7.61;91.59;98673.69;5048889;28;19925;-85
2023/02/22 05:59:31;;;;;;;;;;;;;;;7.59;91.28;98671.28;5050799;28;19948;-84
2023/02/22 06:01:56;;;;;;;;;;;;;;;7.52;91.57;98676.72;5068747;28;19979;-85
2023/02/22 06:04:22;;;;;;;;;;;;;;;7.49;92.39;98671.84;5057666;28;19921;-84
2023/02/22 06:06:47;;;;;;;;;;;;;;;7.47;92.48;98681.09;5056543;28;19946;-84
2023/02/22 06:09:12;;;;;;;;;;;;;;;7.52;92.48;98673.25;5051960;28;20560;-84
2023/02/22 06:11:37;;;;;;;;;;;;;;;7.44;91.88;98670.94;5063438;28;20383;-82
2023/02/22 06:14:02;;;;;;;;;;;;;;;7.42;92.25;98681.81;5044398;28;20291;-82
2023/02/22 06:16:28;;;;;;;;;;;;;;;7.42;92.56;98676.50;5054060;28;19925;-82
2023/02/22 06:18:53;;;;;;;;;;;;;;;7.39;92.98;98676.94;5064553;28;19953;-82
2023/02/22 06:21:18;;;;;;;;;;;;;;;7.49;92.55;98677.16;5067274;28;19948;-82
2023/02/22 06:23:44;;;;;;;;;;;;;;;7.56;91.93;98685.00;5057639;28;19921;-82
2023/02/22 06:26:09;;;;;;;;;;;;;;;7.51;92.21;98685.69;5051324;28;19970;-82
2023/02/22 06:28:34;;;;;;;;;;;;;;;7.51;92.46;98679.59;5059414;28;19929;-82
2023/02/22 06:30:59;;;;;;;;;;;;;;;7.44;92.56;98682.38;5054057;28;19947;-82
2023/02/22 06:33:25;;;;;;;;;;;;;;;7.47;92.89;98686.38;5041156;28;19936;-82
2023/02/22 06:35:50;;;;;;;;;;;;;;;7.44;92.43;98690.34;5041952;28;19935;-82
2023/02/22 06:38:22;;;;;;;;;;;;;;;7.51;92.94;98691.00;5038777;28;20010;-83
2023/02/22 06:40:48;;;;;;;;;;;;;;;7.50;93.04;98700.03;5054751;28;19961;-83
2023/02/22 06:43:13;;;;;;;;;;;;;;;7.55;92.67;98689.53;5053286;28;19917;-83
2023/02/22 06:45:38;;;;;;;;;;;;;;;7.46;92.17;98696.22;5059044;28;20343;-83
2023/02/22 06:48:03;;;;;;;;;;;;;;;7.35;93.02;98694.38;5072372;28;19931;-82
2023/02/22 06:50:29;;;;;;;;;;;;;;;7.47;92.61;98694.34;5042903;28;19920;-83
2023/02/22 06:52:55;;;;;;;;;;;;;;;7.46;93.04;98692.75;5036251;28;19983;-82
2023/02/22 06:55:22;;;;;;;;;;;;;;;7.44;92.73;98690.34;5063215;28;19916;-83
2023/02/22 06:57:47;;;;;;;;;;;;;;;7.50;92.98;98699.22;5074544;28;19924;-82
2023/02/22 07:00:14;;;;;;;;;;;;;;;7.55;92.47;98697.50;5054248;28;19921;-82
2023/02/22 07:02:39;;;;;;;;;;;;;;;7.33;93.47;98696.47;5067723;28;19921;-82
2023/02/22 07:05:05;;;;;;;;;;;;;;;7.34;93.80;98691.94;5055235;28;19927;-83
2023/02/22 07:07:30;;;;;;;;;;;;;;;7.51;93.36;98696.31;5049956;28;20507;-82
2023/02/22 07:09:55;;;;;;;;;;;;;;;7.37;93.83;98694.97;5058213;28;19920;-82
2023/02/22 07:12:20;;;;;;;;;;;;;;;7.56;92.96;98698.28;5079289;28;20403;-82
2023/02/22 07:14:46;;;;;;;;;;;;;;;7.45;93.15;98691.94;5067773;28;21613;-83
2023/02/22 07:17:11;;;;;;;;;;;;;;;7.49;93.25;98695.75;5063034;28;19935;-82
2023/02/22 07:19:36;;;;;;;;;;;;;;;7.39;93.78;98698.19;5056864;28;19921;-83
2023/02/22 07:22:01;;;;;;;;;;;;;;;7.60;92.39;98696.00;5086095;28;20026;-83
2023/02/22 07:24:27;;;;;;;;;;;;;;;7.51;92.92;98698.97;5062066;28;20003;-83
2023/02/22 07:26:53;;;;;;;;;;;;;;;7.44;93.62;98694.84;5057289;28;19988;-82
2023/02/22 07:29:18;;;;;;;;;;;;;;;7.50;93.22;98693.91;5061422;28;19936;-83
2023/02/22 07:31:43;;;;;;;;;;;;;;;7.57;93.17;98695.41;5038782;28;19932;-83
2023/02/22 07:34:08;;;;;;;;;;;;;;;7.60;93.01;98693.34;5066233;28;19936;-83
2023/02/22 07:36:34;;;;;;;;;;;;;;;7.69;93.14;98694.59;5063941;28;19977;-83
2023/02/22 07:38:59;;;;;;;;;;;;;;;7.66;93.10;98695.88;5057986;28;19925;-83
2023/02/22 07:41:24;;;;;;;;;;;;;;;7.74;92.09;98711.44;5059237;28;19975;-82
2023/02/22 07:43:49;;;;;;;;;;;;;;;7.78;92.65;98701.13;5045200;28;19925;-82
2023/02/22 07:46:15;;;;;;;;;;;;;;;7.79;92.21;98698.28;5062525;28;19917;-82
2023/02/22 07:48:40;;;;;;;;;;;;;;;7.64;93.28;98697.94;5052069;28;20403;-83
2023/02/22 07:51:06;;;;;;;;;;;;;;;7.62;93.24;98691.25;5053504;28;19917;-82
2023/02/22 07:53:32;;;;;;;;;;;;;;;7.78;92.11;98691.31;5058260;28;19975;-83
2023/02/22 07:55:58;;;;;;;;;;;;;;;7.68;93.20;98691.13;5069362;28;19916;-83
2023/02/22 07:58:25;;;;;;;;;;;;;;;7.81;92.27;98695.38;5059266;28;20026;-82
2023/02/22 08:00:50;;;;;;;;;;;;;;;7.80;92.77;98699.88;5063846;28;19920;-83
2023/02/22 08:03:17;;;;;;;;;;;;;;;7.85;92.53;98697.31;5067091;28;19981;-83
2023/02/22 08:05:46;;;;;;;;;;;;;;;7.79;92.25;98697.44;5061993;28;19939;-83
2023/02/22 08:08:13;;;;;;;;;;;;;;;7.84;91.87;98695.69;5059590;28;20464;-83
2023/02/22 08:10:40;;;;;;;;;;;;;;;7.77;92.98;98692.38;5071189;28;20349;-82
2023/02/22 08:13:05;;;;;;;;;;;;;;;7.90;92.48;98699.28;5048468;28;19925;-83
2023/02/22 08:15:33;;;;;;;;;;;;;;;7.79;92.88;98700.09;5052261;28;20366;-82
2023/02/22 08:17:59;;;;;;;;;;;;;;;7.90;92.18;98686.00;5066995;28;19931;-82
2023/02/22 08:20:25;;;;;;;;;;;;;;;8.00;91.81;98694.16;5059537;28;20065;-83
2023/02/22 08:22:50;;;;;;;;;;;;;;;7.89;92.34;98693.16;5059904;28;19917;-82
2023/02/22 08:25:16;;;;;;;;;;;;;;;7.93;92.13;98688.97;5060974;28;19921;-83
2023/02/22 08:27:42;;;;;;;;;;;;;;;7.93;91.36;98686.31;5077067;28;20003;-82
2023/02/22 08:30:10;;;;;;;;;;;;;;;7.99;91.61;98689.91;5062223;28;19924;-82
2023/02/22 08:32:35;;;;;;;;;;;;;;;7.99;91.79;98685.41;5055746;28;20339;-81
2023/02/22 08:35:01;;;;;;;;;;;;;;;7.93;91.14;98682.88;5054706;28;19965;-82
2023/02/22 08:37:28;;;;;;;;;;;;;;;7.98;91.02;98678.47;5071421;28;21317;-82
2023/02/22 08:39:54;;;;;;;;;;;;;;;7.99;91.09;98673.97;5038161;28;20133;-82
2023/02/22 08:42:20;;;;;;;;;;;;;;;7.98;92.08;98675.81;5064700;28;19970;-82
2023/02/22 08:44:45;;;;;;;;;;;;;;;8.05;91.64;98673.00;5056654;28;20392;-83
2023/02/22 08:47:10;;;;;;;;;;;;;;;8.01;91.84;98669.22;5053149;28;19984;-82
2023/02/22 08:49:36;;;;;;;;;;;;;;;8.10;91.38;98671.25;5055056;28;19963;-82
2023/02/22 08:52:01;;;;;;;;;;;;;;;7.90;92.38;98675.38;5058619;28;19916;-81
2023/02/22 08:54:26;;;;;;;;;;;;;;;8.15;91.52;98666.03;5066163;28;19924;-82
2023/02/22 08:56:51;;;;;;;;;;;;;;;8.06;92.41;98664.00;5058511;28;19925;-82
2023/02/22 08:59:17;;;;;;;;;;;;;;;8.03;92.11;98662.63;5055190;28;19969;-82
2023/02/22 09:01:42;;;;;;;;;;;;;;;8.08;91.45;98664.56;5055583;28;19921;-82
2023/02/22 09:04:07;;;;;;;;;;;;;;;8.20;91.50;98667.97;5054279;28;20023;-81
2023/02/22 09:06:33;;;;;;;;;;;;;;;8.19;91.06;98656.53;5068665;28;19917;-82
2023/02/22 09:08:58;;;;;;;;;;;;;;;8.21;91.50;98659.75;5058047;28;20297;-82
2023/02/22 09:11:23;;;;;;;;;;;;;;;8.23;91.47;98657.66;5071794;28;19990;-82
2023/02/22 09:13:48;;;;;;;;;;;;;;;8.24;91.36;98655.81;5067588;28;19921;-82
2023/02/22 09:16:14;;;;;;;;;;;;;;;8.49;90.52;98648.34;5053509;28;19924;-82
2023/02/22 09:18:39;;;;;;;;;;;;;;;8.51;90.04;98664.88;5057851;28;20050;-82
2023/02/22 09:21:05;;;;;;;;;;;;;;;8.53;90.22;98665.44;5060303;28;19959;-82
2023/02/22 09:23:30;;;;;;;;;;;;;;;8.54;89.84;98659.06;5082836;28;20343;-82
2023/02/22 09:25:55;;;;;;;;;;;;;;;8.57;90.38;98649.78;5072493;28;19928;-82
2023/02/22 09:28:21;;;;;;;;;;;;;;;8.58;89.75;98646.91;5074216;28;19936;-82
2023/02/22 09:30:46;;;;;;;;;;;;;;;8.59;89.61;98640.53;5069731;28;19916;-82
2023/02/22 09:33:15;;;;;;;;;;;;;;;8.54;89.83;98637.78;5059525;28;19925;-82
2023/02/22 09:35:44;;;;;;;;;;;;;;;8.65;89.35;98642.22;5049189;28;19920;-82
2023/02/22 09:38:10;;;;;;;;;;;;;;;8.60;90.11;98636.84;5062050;28;19948;-82
2023/02/22 09:40:43;;;;;;;;;;;;;;;8.66;89.44;98635.06;5080484;28;20342;-82
2023/02/22 09:43:29;;;;;;;;;;;;;;;8.68;89.58;98633.78;5070395;28;19921;-82
2023/02/22 09:46:17;;;;;;;;;;;;;;;8.64;90.01;98626.50;5053191;28;19960;-83
2023/02/22 09:48:58;;;;;;;;;;;;;;;8.83;88.76;98623.38;5053865;28;20442;-82
2023/02/22 09:51:26;;;;;;;;;;;;;;;8.69;89.73;98623.94;5056033;28;19924;-82
2023/02/22 09:53:55;;;;;;;;;;;;;;;8.73;89.74;98622.41;5060803;28;19931;-82
2023/02/22 09:56:21;;;;;;;;;;;;;;;8.75;89.74;98625.63;5056191;28;19916;-82
2023/02/22 09:58:51;;;;;;;;;;;;;;;8.73;89.71;98620.56;5054286;28;19978;-82
2023/02/22 10:01:32;;;;;;;;;;;;;;;8.78;89.21;98615.28;5066790;28;19940;-82
2023/02/22 10:04:12;;;;;;;;;;;;;;;8.83;89.18;98620.69;5043247;28;19920;-82
2023/02/22 10:06:42;;;;;;;;;;;;;;;8.84;89.13;98616.19;5062464;28;20003;-82
2023/02/22 10:09:08;;;;;;;;;;;;;;;8.80;89.69;98615.06;5058210;28;19917;-83
2023/02/22 10:11:49;;;;;;;;;;;;;;;8.80;89.34;98612.41;5060728;28;19921;-83
2023/02/22 10:14:14;;;;;;;;;;;;;;;8.79;89.93;98616.91;5077432;28;20358;-83
2023/02/22 10:16:47;;;;;;;;;;;;;;;8.81;89.66;98611.34;5057268;28;19966;-83
2023/02/22 10:19:19;;;;;;;;;;;;;;;8.82;89.53;98600.44;5053943;28;19943;-83
2023/02/22 10:21:44;;;;;;;;;;;;;;;8.88;89.20;98599.50;5055504;28;19931;-83
2023/02/22 10:24:12;;;;;;;;;;;;;;;8.87;89.31;98595.22;5073053;28;20404;-83
2023/02/22 10:26:42;;;;;;;;;;;;;;;8.93;89.29;98598.78;5052218;28;20395;-83
2023/02/22 10:29:23;;;;;;;;;;;;;;;8.96;89.32;98603.59;5059292;28;19920;-82
2023/02/22 10:31:50;;;;;;;;;;;;;;;8.98;89.31;98596.97;5050664;28;19917;-83
2023/02/22 10:34:20;;;;;;;;;;;;;;;9.05;89.39;98596.81;5055366;28;20036;-83
2023/02/22 10:36:46;;;;;;;;;;;;;;;9.12;88.82;98596.63;5073634;28;19927;-82
2023/02/22 10:39:14;;;;;;;;;;;;;;;9.01;88.85;98593.03;5058561;28;20363;-83
2023/02/22 10:41:43;;;;;;;;;;;;;;;9.11;89.17;98597.69;5071978;28;20478;-82
2023/02/22 10:44:09;;;;;;;;;;;;;;;9.03;89.73;98586.41;5056194;28;19924;-82
2023/02/22 10:46:34;;;;;;;;;;;;;;;9.02;89.34;98587.44;5038509;28;20399;-83
2023/02/22 10:49:03;;;;;;;;;;;;;;;9.10;89.62;98593.41;5062286;28;19921;-82
2023/02/22 10:51:29;;;;;;;;;;;;;;;9.03;89.87;98578.44;5059643;28;19921;-83
2023/02/22 10:54:18;;;;;;;;;;;;;;;9.23;89.87;98577.09;5060992;28;20395;-82
2023/02/22 10:56:48;;;;;;;;;;;;;;;9.22;89.53;98586.16;5057813;28;19925;-82
2023/02/22 10:59:25;;;;;;;;;;;;;;;9.25;89.67;98574.97;5061250;28;19920;-84
2023/02/22 11:01:51;;;;;;;;;;;;;;;9.32;88.77;98572.94;5062956;28;20019;-83
2023/02/22 11:04:18;;;;;;;;;;;;;;;9.35;89.09;98573.25;5056398;28;19943;-83
2023/02/22 11:06:47;;;;;;;;;;;;;;;9.23;89.05;98572.56;5074368;28;19928;-83
2023/02/22 11:09:17;;;;;;;;;;;;;;;9.32;88.84;98568.44;5073472;28;20020;-82
2023/02/22 11:11:44;;;;;;;;;;;;;;;9.36;88.79;98572.22;5080399;28;20011;-83
2023/02/22 11:14:10;;;;;;;;;;;;;;;9.32;88.14;98565.78;5069491;28;19920;-84
2023/02/22 11:16:37;;;;;;;;;;;;;;;9.38;89.23;98563.97;5061248;28;19943;-83
2023/02/22 11:19:21;;;;;;;;;;;;;;;9.43;88.53;98554.19;5064919;28;19927;-84
2023/02/22 11:21:50;;;;;;;;;;;;;;;9.59;88.91;98552.50;5060157;28;19917;-84
2023/02/22 11:24:16;;;;;;;;;;;;;;;9.64;88.51;98547.22;5060926;28;20346;-83
2023/02/22 11:26:43;;;;;;;;;;;;;;;9.73;88.40;98545.75;5058827;28;19930;-84
2023/02/22 11:29:10;;;;;;;;;;;;;;;9.79;88.08;98552.72;5044594;28;20119;-83
2023/02/22 11:31:41;;;;;;;;;;;;;;;9.62;88.05;98546.69;5063499;28;19960;-84
2023/02/22 11:34:06;;;;;;;;;;;;;;;9.91;87.79;98548.06;5070445;28;19981;-84
2023/02/22 11:36:39;;;;;;;;;;;;;;;9.93;88.07;98532.63;5070571;28;19964;-83
2023/02/22 11:39:23;;;;;;;;;;;;;;;9.94;87.82;98530.78;5066817;28;19970;-84
2023/02/22 11:41:48;;;;;;;;;;;;;;;10.03;87.21;98524.72;5051894;28;19996;-84
2023/02/22 11:44:20;;;;;;;;;;;;;;;9.99;87.12;98525.47;5059270;28;20478;-83
2023/02/22 11:46:45;;;;;;;;;;;;;;;10.07;87.36;98519.69;5052645;28;19921;-83
2023/02/22 11:49:12;;;;;;;;;;;;;;;10.13;87.06;98511.53;5052930;28;19927;-83
2023/02/22 11:51:46;;;;;;;;;;;;;;;10.12;86.58;98515.22;5051682;28;19950;-84
2023/02/22 11:54:30;;;;;;;;;;;;;;;10.14;86.29;98515.78;5068796;28;19928;-84
2023/02/22 11:57:15;;;;;;;;;;;;;;;10.12;86.09;98504.56;5069595;28;19927;-83
2023/02/22 11:59:56;;;;;;;;;;;;;;;10.38;86.38;98503.72;5021036;28;20486;-82
2023/02/22 12:02:24;;;;;;;;;;;;;;;10.34;85.25;98505.28;5061994;28;19976;-83
2023/02/22 12:04:58;;;;;;;;;;;;;;;10.35;85.29;98500.78;5064681;28;19916;-84
2023/02/22 12:07:23;;;;;;;;;;;;;;;10.50;86.52;98504.34;5054674;28;19925;-83
2023/02/22 12:09:54;;;;;;;;;;;;;;;10.25;84.02;98496.16;5057721;28;19917;-83
2023/02/22 12:12:39;;;;;;;;;;;;;;;10.33;85.68;98503.66;5069424;28;19916;-84
2023/02/22 12:15:12;;;;;;;;;;;;;;;10.42;84.22;98498.66;5049236;28;19921;-83
2023/02/22 12:17:40;;;;;;;;;;;;;;;10.55;85.86;98495.56;5052311;28;19917;-83
2023/02/22 12:20:20;;;;;;;;;;;;;;;10.77;85.37;98498.13;5050992;28;19917;-83
2023/02/22 12:23:14;;;;;;;;;;;;;;;10.62;83.04;98492.66;5063017;28;19920;-83
2023/02/22 12:25:57;;;;;;;;;;;;;;;11.06;85.00;98502.81;5054306;28;19917;-83
2023/02/22 12:28:26;;;;;;;;;;;;;;;10.98;83.57;98502.50;5051021;28;19917;-84
2023/02/22 12:31:00;;;;;;;;;;;;;;;11.28;83.82;98500.78;5066493;28;19924;-83
2023/02/22 12:33:28;;;;;;;;;;;;;;;11.22;83.06;98490.34;5068426;28;19947;-83
2023/02/22 12:35:55;;;;;;;;;;;;;;;11.55;82.67;98495.28;5055365;28;19980;-84
2023/02/22 12:38:23;;;;;;;;;;;;;;;11.35;83.27;98483.69;5064588;28;19986;-84
2023/02/22 12:40:53;;;;;;;;;;;;;;;11.45;83.51;98492.56;5063821;28;19916;-84
2023/02/22 12:43:28;;;;;;;;;;;;;;;11.28;80.56;98487.44;5064934;28;19917;-84
2023/02/22 12:46:12;;;;;;;;;;;;;;;11.67;82.55;98481.69;5056731;28;19916;-83
2023/02/22 12:48:53;;;;;;;;;;;;;;;11.75;82.27;98478.50;5060164;28;19923;-83
2023/02/22 12:51:30;;;;;;;;;;;;;;;11.81;81.69;98472.09;5067645;28;20376;-84
2023/02/22 12:54:28;;;;;;;;;;;;;;;11.70;80.42;98470.47;5077289;28;19924;-83
2023/02/22 12:56:56;;;;;;;;;;;;;;;11.70;82.10;98470.47;5037182;28;19944;-83
2023/02/22 12:59:24;;;;;;;;;;;;;;;11.99;81.85;98475.03;5050898;28;19916;-83
2023/02/22 13:01:55;;;;;;;;;;;;;;;11.61;78.33;98475.50;5048711;28;19967;-83